Main page
METAR-TAF:

METAR-TAF

Airports :

Lone Star Executive Airport

Houston / Conroe, Texas, United States

latitude: 30-21-24N, longitude: 095-24-50W, elevation: 243 ft

Current weather observation

The report was made 54 minutes ago, at 03:53 UTC
Wind 8 mph from the North/Northeast
Temperature 45°F
Humidity 70%
Pressure 30.56 in. Hg
Visibility: 10 miles
Clear sky

METAR: KCXO 210353Z AUTO 02007KT 10SM CLR 07/02 A3056 RMK AO2 SLP350 T00670017

Time: 22:47 (04:47 UTC)

Forecast

The report was made 1 hour and 49 minutes ago, at 02:58 UTC
Forecast valid from 21 at 03 UTC to 21 at 24 UTC
Wind 9 mph from the North
Visibility: 6 miles
Few clouds at a height of 3500 ft
From 21 at 0600 UTC
Wind 10 mph from the North/Northeast
Visibility: 6 miles
Few clouds at a height of 25000 ft

TAF: KCXO 210258Z 2103/2124 01008KT P6SM FEW035 FM210600 02009KT P6SM FEW250

Weather observations and forecasts of more than 4000 airports (METAR and TAF reports).

The available stations are represented by yellow and red dots on the map.

Hover mouse over dot to see the name of the station.

Then click to see weather observations and forecasts.

To change the map : click on the green buttons with a black cross to zoom in, on the green button with a dash to zoom out, or on the green arrows for adjacent maps.


METAR-TAF: